Time;durP1;ratioP1;P1;durP2;ratioP2;P2;SDS_P1;SDS_P2;PMS_P1;PMS_P2;Temp;Humidity;BMP_temperature;BMP_pressure;BME280_temperature;BME280_humidity;BME280_pressure;Samples;Min_cycle;Max_cycle;Signal;HPM_P1;HPM_P2
2021/06/21 00:00:34;;;;;;;3.60;1.90;;;;;;;;;;487968;243;27522;-68
2021/06/21 00:02:36;;;;;;;1.70;1.60;;;;;;;;;;487995;243;28012;-69
2021/06/21 00:04:38;;;;;;;3.00;1.43;;;;;;;;;;488021;243;27521;-70
2021/06/21 00:06:40;;;;;;;2.20;1.37;;;;;;;;;;487955;243;28016;-70
2021/06/21 00:08:42;;;;;;;5.43;1.80;;;;;;;;;;487970;243;27627;-70
2021/06/21 00:10:44;;;;;;;3.50;1.77;;;;;;;;;;487981;243;27956;-70
2021/06/21 00:12:46;;;;;;;2.83;1.40;;;;;;;;;;488021;243;27595;-70
2021/06/21 00:14:48;;;;;;;3.57;1.90;;;;;;;;;;488031;243;28030;-69
2021/06/21 00:16:51;;;;;;;4.93;2.37;;;;;;;;;;488079;243;27491;-69
2021/06/21 00:18:53;;;;;;;1.77;1.60;;;;;;;;;;488010;243;27930;-69
2021/06/21 00:20:55;;;;;;;2.13;1.57;;;;;;;;;;488065;243;27570;-70
2021/06/21 00:22:57;;;;;;;2.47;1.50;;;;;;;;;;488028;243;27932;-69
2021/06/21 00:24:59;;;;;;;3.60;1.70;;;;;;;;;;488047;243;27473;-69
2021/06/21 00:27:01;;;;;;;2.17;1.53;;;;;;;;;;488027;243;27926;-68
2021/06/21 00:29:03;;;;;;;2.23;2.03;;;;;;;;;;488064;243;27515;-71
2021/06/21 00:31:05;;;;;;;2.30;1.40;;;;;;;;;;488039;243;27943;-70
2021/06/21 00:33:08;;;;;;;2.87;1.70;;;;;;;;;;488013;243;27498;-71
2021/06/21 00:35:10;;;;;;;5.50;1.80;;;;;;;;;;488003;243;28006;-68
2021/06/21 00:37:12;;;;;;;2.30;1.90;;;;;;;;;;488011;243;27477;-70
2021/06/21 00:39:14;;;;;;;2.50;2.30;;;;;;;;;;488017;243;28791;-69
2021/06/21 00:41:16;;;;;;;4.30;1.70;;;;;;;;;;487896;243;27558;-68
2021/06/21 00:43:18;;;;;;;4.10;1.53;;;;;;;;;;487911;243;28056;-69
2021/06/21 00:45:20;;;;;;;4.00;1.83;;;;;;;;;;487945;243;27500;-69
2021/06/21 00:47:22;;;;;;;1.90;1.50;;;;;;;;;;488009;243;27985;-69
2021/06/21 00:49:24;;;;;;;2.50;1.50;;;;;;;;;;488031;243;27522;-70
2021/06/21 00:51:27;;;;;;;6.03;1.83;;;;;;;;;;488019;243;28092;-70
2021/06/21 00:53:29;;;;;;;2.60;1.67;;;;;;;;;;488012;243;27518;-68
2021/06/21 00:55:31;;;;;;;5.57;1.83;;;;;;;;;;488070;243;27977;-69
2021/06/21 00:57:33;;;;;;;8.27;2.87;;;;;;;;;;488008;243;27512;-70
2021/06/21 00:59:35;;;;;;;2.40;1.50;;;;;;;;;;488085;243;27989;-68
2021/06/21 01:01:37;;;;;;;2.50;1.70;;;;;;;;;;487986;243;27524;-70
2021/06/21 01:03:39;;;;;;;5.67;1.90;;;;;;;;;;488001;244;27997;-69
2021/06/21 01:05:41;;;;;;;2.37;1.60;;;;;;;;;;488036;243;27513;-70
2021/06/21 01:07:43;;;;;;;4.50;2.10;;;;;;;;;;488009;243;28049;-69
2021/06/21 01:09:47;;;;;;;2.70;1.70;;;;;;;;;;488068;243;27596;-69
2021/06/21 01:11:48;;;;;;;2.80;1.87;;;;;;;;;;487938;243;28030;-70
2021/06/21 01:13:50;;;;;;;2.90;1.70;;;;;;;;;;487988;243;27505;-70
2021/06/21 01:15:52;;;;;;;4.00;2.10;;;;;;;;;;488034;243;27927;-71
2021/06/21 01:17:54;;;;;;;4.10;2.50;;;;;;;;;;488002;243;27528;-70
2021/06/21 01:19:56;;;;;;;1.57;1.47;;;;;;;;;;488036;243;27934;-69
2021/06/21 01:21:58;;;;;;;6.20;1.83;;;;;;;;;;488052;243;27546;-69
2021/06/21 01:24:00;;;;;;;2.60;1.40;;;;;;;;;;488032;243;28032;-69
2021/06/21 01:26:02;;;;;;;4.07;1.57;;;;;;;;;;488035;243;27482;-70
2021/06/21 01:28:05;;;;;;;2.30;1.50;;;;;;;;;;488049;243;27949;-70
2021/06/21 01:30:07;;;;;;;3.23;1.30;;;;;;;;;;488017;243;27480;-70
2021/06/21 01:32:09;;;;;;;4.37;1.43;;;;;;;;;;488050;243;28039;-70
2021/06/21 01:34:11;;;;;;;2.50;1.90;;;;;;;;;;488044;243;27487;-70
2021/06/21 01:36:13;;;;;;;1.53;1.43;;;;;;;;;;488071;243;27942;-69
2021/06/21 01:38:15;;;;;;;2.33;1.57;;;;;;;;;;488037;243;27470;-68
2021/06/21 01:40:17;;;;;;;2.60;1.47;;;;;;;;;;488005;243;27993;-70
2021/06/21 01:42:19;;;;;;;4.33;1.70;;;;;;;;;;488008;243;27593;-71
2021/06/21 01:44:21;;;;;;;4.77;1.60;;;;;;;;;;488014;243;27933;-70
2021/06/21 01:46:24;;;;;;;3.70;1.77;;;;;;;;;;487984;243;27602;-71
2021/06/21 01:48:26;;;;;;;2.70;1.63;;;;;;;;;;488017;243;28702;-69
2021/06/21 01:50:28;;;;;;;3.00;1.83;;;;;;;;;;488020;243;27480;-69
2021/06/21 01:52:30;;;;;;;1.40;1.30;;;;;;;;;;488045;243;28072;-68
2021/06/21 01:54:32;;;;;;;5.10;1.60;;;;;;;;;;488032;243;27557;-68
2021/06/21 01:56:34;;;;;;;4.80;1.80;;;;;;;;;;488024;243;28124;-68
2021/06/21 01:58:37;;;;;;;2.80;1.53;;;;;;;;;;488032;244;27607;-68
2021/06/21 02:00:38;;;;;;;2.60;1.33;;;;;;;;;;488009;243;28768;-69
2021/06/21 02:02:41;;;;;;;2.40;1.60;;;;;;;;;;488010;243;27497;-69
2021/06/21 02:04:43;;;;;;;3.90;1.80;;;;;;;;;;488061;243;28012;-69
2021/06/21 02:06:45;;;;;;;3.10;1.63;;;;;;;;;;488019;243;27505;-69
2021/06/21 02:08:47;;;;;;;2.80;1.83;;;;;;;;;;488020;243;28098;-69
2021/06/21 02:10:49;;;;;;;3.10;1.67;;;;;;;;;;488005;243;27576;-70
2021/06/21 02:12:51;;;;;;;3.13;1.73;;;;;;;;;;488089;243;28108;-69
2021/06/21 02:14:53;;;;;;;2.53;1.40;;;;;;;;;;488047;243;27533;-69
2021/06/21 02:16:55;;;;;;;4.43;1.60;;;;;;;;;;487863;243;28079;-69
2021/06/21 02:18:57;;;;;;;2.43;1.50;;;;;;;;;;473733;248;27558;-71
2021/06/21 02:21:00;;;;;;;8.03;1.63;;;;;;;;;;474759;250;27522;-68
2021/06/21 02:23:02;;;;;;;2.97;1.77;;;;;;;;;;474681;249;27407;-68
2021/06/21 02:25:04;;;;;;;2.43;1.90;;;;;;;;;;474749;250;27474;-68
2021/06/21 02:27:06;;;;;;;4.03;1.60;;;;;;;;;;474674;248;27428;-70
2021/06/21 02:29:08;;;;;;;1.80;1.47;;;;;;;;;;474735;250;27566;-70
2021/06/21 02:31:10;;;;;;;4.83;1.40;;;;;;;;;;474702;250;27554;-68
2021/06/21 02:33:12;;;;;;;1.70;1.60;;;;;;;;;;474693;250;27415;-68
2021/06/21 02:35:14;;;;;;;4.00;1.93;;;;;;;;;;474711;250;27455;-69
2021/06/21 02:37:17;;;;;;;7.37;1.90;;;;;;;;;;474680;250;27504;-69
2021/06/21 02:39:19;;;;;;;6.30;2.17;;;;;;;;;;474692;250;27408;-70
2021/06/21 02:41:21;;;;;;;4.60;2.00;;;;;;;;;;474679;250;27529;-68
2021/06/21 02:43:23;;;;;;;5.20;1.90;;;;;;;;;;474684;250;27464;-68
2021/06/21 02:45:25;;;;;;;7.93;2.00;;;;;;;;;;474706;250;27447;-69
2021/06/21 02:47:27;;;;;;;3.13;1.90;;;;;;;;;;474674;250;27483;-70
2021/06/21 02:49:29;;;;;;;4.20;2.10;;;;;;;;;;474704;250;27494;-68
2021/06/21 02:51:31;;;;;;;5.53;1.60;;;;;;;;;;474678;250;27471;-68
2021/06/21 02:53:33;;;;;;;2.10;1.90;;;;;;;;;;474699;250;27412;-70
2021/06/21 02:55:36;;;;;;;3.03;1.73;;;;;;;;;;474723;250;27686;-70
2021/06/21 02:57:38;;;;;;;3.97;1.60;;;;;;;;;;474669;250;27526;-70
2021/06/21 02:59:40;;;;;;;3.67;1.50;;;;;;;;;;474724;250;27424;-69
2021/06/21 03:01:42;;;;;;;2.30;1.83;;;;;;;;;;474732;250;27486;-70
2021/06/21 03:03:44;;;;;;;2.50;1.73;;;;;;;;;;474733;250;27527;-70
2021/06/21 03:05:49;;;;;;;3.30;2.10;;;;;;;;;;474738;250;27475;-70
2021/06/21 03:07:49;;;;;;;2.93;1.90;;;;;;;;;;474546;250;27461;-70
2021/06/21 03:09:50;;;;;;;3.27;1.70;;;;;;;;;;474694;250;27459;-70
2021/06/21 03:11:52;;;;;;;4.27;1.90;;;;;;;;;;474715;250;27404;-71
2021/06/21 03:13:55;;;;;;;5.67;2.23;;;;;;;;;;474710;250;27546;-71
2021/06/21 03:15:57;;;;;;;5.30;1.80;;;;;;;;;;474713;250;27427;-70
2021/06/21 03:17:59;;;;;;;4.33;1.80;;;;;;;;;;474700;250;27487;-70
2021/06/21 03:20:01;;;;;;;4.43;2.20;;;;;;;;;;474679;250;27509;-69
2021/06/21 03:22:03;;;;;;;2.97;1.70;;;;;;;;;;474694;250;27543;-71
2021/06/21 03:24:07;;;;;;;3.10;1.93;;;;;;;;;;474689;250;27515;-69
2021/06/21 03:26:07;;;;;;;2.30;1.90;;;;;;;;;;474635;250;27489;-68
2021/06/21 03:28:10;;;;;;;3.40;1.80;;;;;;;;;;474706;250;27494;-68
2021/06/21 03:30:11;;;;;;;3.07;1.90;;;;;;;;;;474656;250;27452;-69
2021/06/21 03:32:14;;;;;;;4.93;2.13;;;;;;;;;;474685;250;27521;-69
2021/06/21 03:34:16;;;;;;;2.80;1.97;;;;;;;;;;474679;250;27452;-69
2021/06/21 03:36:18;;;;;;;2.23;1.60;;;;;;;;;;474685;250;27499;-68
2021/06/21 03:38:20;;;;;;;3.33;2.00;;;;;;;;;;474752;250;27443;-69
2021/06/21 03:40:22;;;;;;;3.70;1.93;;;;;;;;;;474724;250;27391;-69
2021/06/21 03:42:24;;;;;;;2.50;1.90;;;;;;;;;;474743;250;27451;-69
2021/06/21 03:44:26;;;;;;;5.03;2.20;;;;;;;;;;474691;250;27411;-69
2021/06/21 03:46:28;;;;;;;1.73;1.60;;;;;;;;;;474726;250;27420;-68
2021/06/21 03:48:31;;;;;;;4.10;2.07;;;;;;;;;;474703;250;27404;-69
2021/06/21 03:50:33;;;;;;;3.70;2.40;;;;;;;;;;474728;250;27452;-69
2021/06/21 03:52:35;;;;;;;2.37;2.00;;;;;;;;;;474727;250;27462;-68
2021/06/21 03:54:37;;;;;;;3.50;1.90;;;;;;;;;;474719;250;27494;-68
2021/06/21 03:56:39;;;;;;;2.60;1.80;;;;;;;;;;474723;250;27472;-69
2021/06/21 03:58:41;;;;;;;6.20;2.20;;;;;;;;;;474678;250;27419;-69
2021/06/21 04:00:43;;;;;;;1.73;1.63;;;;;;;;;;474740;250;27400;-69
2021/06/21 04:02:45;;;;;;;3.87;1.80;;;;;;;;;;471423;252;27610;-69
2021/06/21 04:04:47;;;;;;;3.20;2.00;;;;;;;;;;471477;252;27626;-68
2021/06/21 04:06:50;;;;;;;2.03;1.70;;;;;;;;;;471440;252;27528;-68
2021/06/21 04:08:52;;;;;;;2.23;1.80;;;;;;;;;;471507;252;27629;-69
2021/06/21 04:10:54;;;;;;;4.10;1.93;;;;;;;;;;471447;252;27548;-68
2021/06/21 04:12:56;;;;;;;4.07;2.10;;;;;;;;;;472388;246;27525;-69
2021/06/21 04:14:58;;;;;;;2.97;2.30;;;;;;;;;;481087;246;27503;-71
2021/06/21 04:17:02;;;;;;;2.80;1.97;;;;;;;;;;479575;248;27539;-69
2021/06/21 04:19:02;;;;;;;2.20;1.90;;;;;;;;;;479530;248;27527;-71
2021/06/21 04:21:04;;;;;;;3.60;2.07;;;;;;;;;;479587;248;27616;-71
2021/06/21 04:23:06;;;;;;;5.10;2.27;;;;;;;;;;479584;248;27567;-70
2021/06/21 04:25:09;;;;;;;7.73;2.20;;;;;;;;;;479551;248;27526;-69
2021/06/21 04:27:11;;;;;;;2.93;2.10;;;;;;;;;;479530;248;27532;-69
2021/06/21 04:29:13;;;;;;;2.50;2.10;;;;;;;;;;479529;247;27522;-69
2021/06/21 04:31:15;;;;;;;4.57;1.90;;;;;;;;;;479504;248;27564;-71
2021/06/21 04:33:17;;;;;;;2.37;2.17;;;;;;;;;;479530;248;27529;-69
2021/06/21 04:35:19;;;;;;;2.27;1.80;;;;;;;;;;479545;247;27556;-70
2021/06/21 04:37:21;;;;;;;4.87;2.40;;;;;;;;;;479522;247;27544;-68
2021/06/21 04:39:23;;;;;;;2.60;1.73;;;;;;;;;;479532;248;27550;-70
2021/06/21 04:41:25;;;;;;;3.20;2.10;;;;;;;;;;479539;247;27626;-68
2021/06/21 04:43:28;;;;;;;2.03;1.90;;;;;;;;;;479510;247;27563;-69
2021/06/21 04:45:30;;;;;;;2.67;1.70;;;;;;;;;;479389;247;27525;-70
2021/06/21 04:47:32;;;;;;;2.37;2.17;;;;;;;;;;479513;248;27978;-70
2021/06/21 04:49:34;;;;;;;5.47;2.03;;;;;;;;;;479535;248;27508;-70
2021/06/21 04:51:36;;;;;;;5.43;1.87;;;;;;;;;;479508;248;28023;-71
2021/06/21 04:53:38;;;;;;;5.20;1.80;;;;;;;;;;479541;248;27508;-70
2021/06/21 04:55:40;;;;;;;3.43;2.00;;;;;;;;;;479562;248;27939;-70
2021/06/21 04:57:42;;;;;;;3.80;1.93;;;;;;;;;;479532;248;27508;-70
2021/06/21 04:59:45;;;;;;;3.23;1.77;;;;;;;;;;479553;248;28097;-70
2021/06/21 05:01:47;;;;;;;2.20;1.57;;;;;;;;;;479545;248;27634;-70
2021/06/21 05:03:49;;;;;;;3.90;1.50;;;;;;;;;;479532;248;27925;-69
2021/06/21 05:05:51;;;;;;;6.20;1.90;;;;;;;;;;479459;248;27487;-71
2021/06/21 05:07:53;;;;;;;1.83;1.73;;;;;;;;;;479533;248;27591;-68
2021/06/21 05:09:55;;;;;;;1.53;1.43;;;;;;;;;;479506;248;27534;-69
2021/06/21 05:11:57;;;;;;;1.97;1.53;;;;;;;;;;479484;248;27580;-70
2021/06/21 05:14:00;;;;;;;2.93;1.80;;;;;;;;;;479498;248;27493;-68
2021/06/21 05:16:01;;;;;;;2.73;1.63;;;;;;;;;;479506;248;27544;-71
2021/06/21 05:18:04;;;;;;;8.47;1.80;;;;;;;;;;479495;248;27529;-71
2021/06/21 05:20:06;;;;;;;2.10;1.67;;;;;;;;;;479468;248;27518;-70
2021/06/21 05:22:08;;;;;;;2.33;1.83;;;;;;;;;;474652;248;27388;-68
2021/06/21 05:24:10;;;;;;;3.27;1.80;;;;;;;;;;474703;250;27438;-69
2021/06/21 05:26:12;;;;;;;1.67;1.57;;;;;;;;;;474619;250;27467;-68
2021/06/21 05:28:14;;;;;;;3.33;2.03;;;;;;;;;;474722;250;27428;-70
2021/06/21 05:30:16;;;;;;;2.70;2.00;;;;;;;;;;474706;250;27447;-67
2021/06/21 05:32:18;;;;;;;1.80;1.70;;;;;;;;;;474701;250;27432;-70
2021/06/21 05:34:20;;;;;;;3.97;1.90;;;;;;;;;;474638;250;27487;-67
2021/06/21 05:36:23;;;;;;;2.10;1.90;;;;;;;;;;474702;250;27515;-68
2021/06/21 05:38:25;;;;;;;3.53;2.00;;;;;;;;;;474708;250;27490;-69
2021/06/21 05:40:27;;;;;;;3.40;1.90;;;;;;;;;;474693;250;27430;-69
2021/06/21 05:42:29;;;;;;;3.40;1.93;;;;;;;;;;474713;250;27546;-67
2021/06/21 05:44:31;;;;;;;2.77;1.90;;;;;;;;;;474707;250;27504;-68
2021/06/21 05:46:33;;;;;;;3.13;2.10;;;;;;;;;;474692;250;27487;-70
2021/06/21 05:48:35;;;;;;;3.60;2.40;;;;;;;;;;474702;250;27493;-69
2021/06/21 05:50:38;;;;;;;4.70;2.30;;;;;;;;;;474694;250;27451;-68
2021/06/21 05:52:40;;;;;;;4.33;1.70;;;;;;;;;;474610;250;27415;-69
2021/06/21 05:54:42;;;;;;;3.50;2.03;;;;;;;;;;474711;250;27492;-70
2021/06/21 05:56:44;;;;;;;5.20;2.00;;;;;;;;;;474736;250;27499;-70
2021/06/21 05:58:46;;;;;;;3.47;2.03;;;;;;;;;;474740;250;27529;-70
2021/06/21 06:00:48;;;;;;;1.80;1.70;;;;;;;;;;474734;250;27415;-67
2021/06/21 06:02:53;;;;;;;6.30;2.17;;;;;;;;;;474715;250;27947;-69
2021/06/21 06:04:55;;;;;;;2.77;2.07;;;;;;;;;;474701;250;27474;-69
2021/06/21 06:06:57;;;;;;;2.83;2.10;;;;;;;;;;474673;250;28766;-69
2021/06/21 06:08:59;;;;;;;4.47;2.20;;;;;;;;;;474691;250;27434;-68
2021/06/21 06:11:01;;;;;;;6.00;2.23;;;;;;;;;;474692;250;28672;-69
2021/06/21 06:13:04;;;;;;;2.30;2.10;;;;;;;;;;474689;250;27430;-69
2021/06/21 06:15:05;;;;;;;3.03;2.10;;;;;;;;;;474660;250;28017;-69
2021/06/21 06:17:07;;;;;;;3.00;1.90;;;;;;;;;;474701;250;27459;-71
2021/06/21 06:19:10;;;;;;;5.77;2.57;;;;;;;;;;474702;250;28045;-69
2021/06/21 06:21:12;;;;;;;2.80;2.47;;;;;;;;;;474690;250;27438;-69
2021/06/21 06:23:15;;;;;;;4.00;2.20;;;;;;;;;;474700;250;27922;-70
2021/06/21 06:25:16;;;;;;;2.30;2.10;;;;;;;;;;474635;250;27436;-69
2021/06/21 06:27:18;;;;;;;4.67;2.43;;;;;;;;;;474648;250;27954;-68
2021/06/21 06:29:20;;;;;;;6.10;2.37;;;;;;;;;;474647;250;27539;-69
2021/06/21 06:31:22;;;;;;;3.93;2.43;;;;;;;;;;474682;250;28022;-70
2021/06/21 06:33:24;;;;;;;4.27;2.50;;;;;;;;;;474654;250;27563;-69
2021/06/21 06:35:26;;;;;;;2.60;2.27;;;;;;;;;;474649;250;28002;-69
2021/06/21 06:37:29;;;;;;;5.70;2.37;;;;;;;;;;484759;245;27493;-69
2021/06/21 06:39:31;;;;;;;6.60;2.20;;;;;;;;;;485547;245;27989;-69
2021/06/21 06:41:34;;;;;;;4.93;2.60;;;;;;;;;;485608;245;27549;-69
2021/06/21 06:43:35;;;;;;;3.23;2.10;;;;;;;;;;485510;244;28096;-70
2021/06/21 06:45:37;;;;;;;4.77;2.10;;;;;;;;;;485633;245;27486;-69
2021/06/21 06:47:39;;;;;;;2.73;2.10;;;;;;;;;;485627;245;27946;-69
2021/06/21 06:49:41;;;;;;;2.87;2.10;;;;;;;;;;485622;245;27499;-69
2021/06/21 06:51:46;;;;;;;2.27;1.93;;;;;;;;;;485635;245;28018;-70
2021/06/21 06:53:53;;;;;;;2.77;2.10;;;;;;;;;;485451;244;27532;-70
2021/06/21 06:58:11;;;;;;;3.13;2.23;;;;;;;;;;485597;245;27606;-69
2021/06/21 07:00:13;;;;;;;3.13;2.20;;;;;;;;;;485594;245;27507;-69
2021/06/21 07:02:22;;;;;;;1.70;1.60;;;;;;;;;;485602;245;27541;-69
2021/06/21 07:04:24;;;;;;;2.10;1.90;;;;;;;;;;485591;245;27499;-70
2021/06/21 07:06:26;;;;;;;3.90;1.87;;;;;;;;;;485612;245;28008;-70
2021/06/21 07:08:28;;;;;;;1.90;1.80;;;;;;;;;;485596;245;27530;-69
2021/06/21 07:10:30;;;;;;;2.50;2.17;;;;;;;;;;485612;245;27950;-69
2021/06/21 07:12:32;;;;;;;3.90;2.40;;;;;;;;;;485608;245;27480;-69
2021/06/21 07:14:34;;;;;;;3.80;2.10;;;;;;;;;;485596;245;27955;-68
2021/06/21 07:16:37;;;;;;;2.20;2.00;;;;;;;;;;485583;245;27495;-70
2021/06/21 07:18:39;;;;;;;2.53;1.70;;;;;;;;;;485608;245;28040;-69
2021/06/21 07:20:41;;;;;;;1.60;1.50;;;;;;;;;;485597;245;27464;-70
2021/06/21 07:22:43;;;;;;;6.17;1.87;;;;;;;;;;485612;245;27945;-69
2021/06/21 07:24:45;;;;;;;7.40;1.90;;;;;;;;;;477091;242;27502;-69
2021/06/21 07:26:47;;;;;;;3.10;2.10;;;;;;;;;;478042;248;28878;-69
2021/06/21 07:28:49;;;;;;;2.53;1.80;;;;;;;;;;477184;249;27618;-69
2021/06/21 07:30:51;;;;;;;1.70;1.60;;;;;;;;;;477165;248;28043;-69
2021/06/21 07:32:53;;;;;;;4.37;1.93;;;;;;;;;;477196;248;27620;-70
2021/06/21 07:34:56;;;;;;;3.13;1.77;;;;;;;;;;477177;248;28035;-69
2021/06/21 07:36:58;;;;;;;2.87;1.80;;;;;;;;;;477172;248;27584;-69
2021/06/21 07:39:00;;;;;;;3.23;2.30;;;;;;;;;;477175;248;27647;-68
2021/06/21 07:41:02;;;;;;;5.73;1.73;;;;;;;;;;477184;248;27578;-69
2021/06/21 07:43:04;;;;;;;1.77;1.60;;;;;;;;;;477171;249;27660;-69
2021/06/21 07:45:07;;;;;;;2.87;2.20;;;;;;;;;;477164;248;27646;-69
2021/06/21 07:47:08;;;;;;;2.67;2.03;;;;;;;;;;477114;249;28044;-69
2021/06/21 07:49:10;;;;;;;3.63;1.70;;;;;;;;;;477155;249;27567;-70
2021/06/21 07:51:16;;;;;;;6.20;2.23;;;;;;;;;;477119;249;28119;-69
2021/06/21 07:53:15;;;;;;;2.10;1.80;;;;;;;;;;476882;249;27583;-70
2021/06/21 07:55:17;;;;;;;2.60;1.63;;;;;;;;;;476993;249;28010;-69
2021/06/21 07:57:19;;;;;;;3.80;1.93;;;;;;;;;;476929;249;27658;-69
2021/06/21 07:59:21;;;;;;;2.00;1.80;;;;;;;;;;476950;248;28824;-69
2021/06/21 08:01:23;;;;;;;3.00;1.93;;;;;;;;;;477116;245;27530;-69
2021/06/21 08:03:25;;;;;;;3.67;2.07;;;;;;;;;;477167;249;27982;-69
2021/06/21 08:05:28;;;;;;;1.93;1.80;;;;;;;;;;477179;248;27607;-69
2021/06/21 08:07:29;;;;;;;4.40;2.40;;;;;;;;;;477093;249;28263;-69
2021/06/21 08:09:31;;;;;;;2.23;2.10;;;;;;;;;;477158;249;27528;-69
2021/06/21 08:11:34;;;;;;;2.40;2.10;;;;;;;;;;477154;248;27992;-69
2021/06/21 08:13:36;;;;;;;2.90;2.00;;;;;;;;;;477105;249;27531;-69
2021/06/21 08:15:38;;;;;;;2.77;2.27;;;;;;;;;;477156;249;28037;-69
2021/06/21 08:17:40;;;;;;;2.00;1.80;;;;;;;;;;477188;248;27664;-69
2021/06/21 08:19:44;;;;;;;2.40;2.20;;;;;;;;;;477166;248;28018;-69
2021/06/21 08:21:44;;;;;;;2.20;2.00;;;;;;;;;;476989;247;27531;-69
2021/06/21 08:23:46;;;;;;;1.90;1.80;;;;;;;;;;477162;249;28023;-70
2021/06/21 08:25:48;;;;;;;3.80;2.23;;;;;;;;;;477145;249;27627;-69
2021/06/21 08:27:50;;;;;;;2.10;1.90;;;;;;;;;;477153;245;28731;-68
2021/06/21 08:29:53;;;;;;;2.17;1.80;;;;;;;;;;477163;245;27620;-69
2021/06/21 08:31:55;;;;;;;2.40;1.90;;;;;;;;;;477176;248;28130;-69
2021/06/21 08:33:57;;;;;;;2.03;1.83;;;;;;;;;;477153;248;27574;-69
2021/06/21 08:36:01;;;;;;;2.00;1.80;;;;;;;;;;477143;248;28086;-69
2021/06/21 08:38:01;;;;;;;2.23;1.83;;;;;;;;;;477039;249;27595;-70
2021/06/21 08:40:04;;;;;;;2.43;1.83;;;;;;;;;;477167;248;28022;-69
2021/06/21 08:42:08;;;;;;;3.00;2.27;;;;;;;;;;477127;248;27651;-69
2021/06/21 08:44:10;;;;;;;3.07;2.13;;;;;;;;;;477155;249;28091;-70
2021/06/21 08:46:12;;;;;;;2.93;2.47;;;;;;;;;;477180;249;27601;-69
2021/06/21 08:48:14;;;;;;;8.73;1.97;;;;;;;;;;477222;249;28090;-69
2021/06/21 08:50:17;;;;;;;2.70;2.30;;;;;;;;;;477228;249;27536;-70
2021/06/21 08:52:18;;;;;;;3.43;2.07;;;;;;;;;;477191;249;28099;-69
2021/06/21 08:54:21;;;;;;;2.03;1.93;;;;;;;;;;477161;249;27538;-70
2021/06/21 08:56:23;;;;;;;2.20;2.10;;;;;;;;;;477150;249;27970;-69
2021/06/21 08:58:25;;;;;;;3.47;1.93;;;;;;;;;;477162;249;27535;-70
2021/06/21 09:00:27;;;;;;;3.60;1.80;;;;;;;;;;477158;248;27514;-69
2021/06/21 09:02:29;;;;;;;2.93;2.00;;;;;;;;;;477119;249;27626;-70
2021/06/21 09:04:31;;;;;;;2.23;1.53;;;;;;;;;;477137;249;27589;-67
2021/06/21 09:06:33;;;;;;;2.87;2.20;;;;;;;;;;477128;249;27533;-70
2021/06/21 09:08:35;;;;;;;3.23;1.83;;;;;;;;;;477135;248;27654;-69
2021/06/21 09:10:38;;;;;;;2.40;2.03;;;;;;;;;;477126;246;27674;-70
2021/06/21 09:12:40;;;;;;;2.20;2.03;;;;;;;;;;477155;249;27954;-69
2021/06/21 09:14:42;;;;;;;3.30;2.10;;;;;;;;;;467872;241;27710;-70
2021/06/21 09:16:44;;;;;;;2.20;2.00;;;;;;;;;;473103;251;27531;-70
2021/06/21 09:18:47;;;;;;;6.03;2.47;;;;;;;;;;473123;251;27526;-69
2021/06/21 09:20:48;;;;;;;2.20;2.00;;;;;;;;;;473062;251;27462;-69
2021/06/21 09:22:50;;;;;;;1.90;1.80;;;;;;;;;;473090;251;27461;-70
2021/06/21 09:24:52;;;;;;;4.80;2.30;;;;;;;;;;473137;251;27541;-69
2021/06/21 09:26:54;;;;;;;3.07;2.10;;;;;;;;;;473114;251;27557;-69
2021/06/21 09:28:57;;;;;;;2.03;1.93;;;;;;;;;;473142;251;27590;-69
2021/06/21 09:30:59;;;;;;;2.73;2.07;;;;;;;;;;473134;251;27498;-69
2021/06/21 09:33:01;;;;;;;3.00;2.17;;;;;;;;;;473051;251;27575;-68
2021/06/21 09:35:03;;;;;;;2.10;2.00;;;;;;;;;;473082;251;27485;-70
2021/06/21 09:37:07;;;;;;;3.07;2.10;;;;;;;;;;473112;251;27450;-70
2021/06/21 09:39:07;;;;;;;9.93;2.20;;;;;;;;;;472929;251;27481;-69
2021/06/21 09:41:09;;;;;;;5.27;1.93;;;;;;;;;;473084;251;27541;-69
2021/06/21 09:43:11;;;;;;;2.20;2.10;;;;;;;;;;473092;251;27546;-69
2021/06/21 09:45:13;;;;;;;2.90;1.83;;;;;;;;;;473069;251;27445;-70
2021/06/21 09:47:16;;;;;;;2.60;2.37;;;;;;;;;;473097;251;27446;-69
2021/06/21 09:49:18;;;;;;;3.07;2.30;;;;;;;;;;473093;251;27495;-70
2021/06/21 09:51:20;;;;;;;2.40;2.20;;;;;;;;;;473107;251;27438;-70
2021/06/21 09:53:22;;;;;;;2.60;2.20;;;;;;;;;;473103;251;27502;-69
2021/06/21 09:55:24;;;;;;;2.67;2.47;;;;;;;;;;473086;251;27450;-70
2021/06/21 09:57:26;;;;;;;3.43;2.23;;;;;;;;;;473101;251;27441;-71
2021/06/21 09:59:28;;;;;;;2.60;2.40;;;;;;;;;;473116;251;27550;-71
2021/06/21 10:01:30;;;;;;;2.67;2.40;;;;;;;;;;473084;251;27441;-68
2021/06/21 10:03:32;;;;;;;3.13;2.40;;;;;;;;;;473119;251;27465;-68
2021/06/21 10:05:39;;;;;;;5.83;2.33;;;;;;;;;;473065;251;27475;-69
2021/06/21 10:07:37;;;;;;;3.50;2.20;;;;;;;;;;472834;251;27437;-68
2021/06/21 10:09:39;;;;;;;4.13;2.60;;;;;;;;;;473098;251;27458;-68
2021/06/21 10:11:43;;;;;;;3.17;2.30;;;;;;;;;;472821;250;27534;-68
2021/06/21 10:13:43;;;;;;;2.73;2.23;;;;;;;;;;471762;252;27426;-69
2021/06/21 10:15:45;;;;;;;2.57;2.37;;;;;;;;;;471883;251;27435;-69
2021/06/21 10:17:47;;;;;;;2.37;2.17;;;;;;;;;;471874;251;27434;-68
2021/06/21 10:19:49;;;;;;;2.10;1.80;;;;;;;;;;471868;251;27511;-68
2021/06/21 10:21:56;;;;;;;2.37;2.17;;;;;;;;;;471847;250;27407;-68
2021/06/21 10:23:57;;;;;;;2.63;2.13;;;;;;;;;;471763;250;28055;-66
2021/06/21 10:25:59;;;;;;;2.63;2.43;;;;;;;;;;471866;251;27487;-67
2021/06/21 10:28:01;;;;;;;2.30;2.10;;;;;;;;;;471904;251;27477;-68
2021/06/21 10:30:03;;;;;;;2.63;2.30;;;;;;;;;;471874;251;27493;-65
2021/06/21 10:32:05;;;;;;;2.40;2.20;;;;;;;;;;471854;251;27430;-66
2021/06/21 10:34:07;;;;;;;2.70;2.20;;;;;;;;;;471839;251;27451;-71
2021/06/21 10:36:09;;;;;;;2.43;2.23;;;;;;;;;;471872;252;27513;-68
2021/06/21 10:38:11;;;;;;;2.57;2.00;;;;;;;;;;471875;252;27427;-68
2021/06/21 10:40:14;;;;;;;2.00;1.80;;;;;;;;;;471893;251;27425;-67
2021/06/21 10:42:16;;;;;;;3.27;2.30;;;;;;;;;;471853;251;27422;-69
2021/06/21 10:44:18;;;;;;;2.63;2.43;;;;;;;;;;471879;251;27410;-69
2021/06/21 10:46:20;;;;;;;2.30;2.20;;;;;;;;;;471880;252;27434;-69
2021/06/21 10:48:22;;;;;;;2.40;2.30;;;;;;;;;;471839;251;27402;-71
2021/06/21 10:50:24;;;;;;;3.03;2.10;;;;;;;;;;471916;251;27442;-69
2021/06/21 10:52:26;;;;;;;2.33;2.10;;;;;;;;;;471913;252;27416;-69
2021/06/21 10:54:28;;;;;;;2.73;2.53;;;;;;;;;;471865;251;27415;-69
2021/06/21 10:56:30;;;;;;;2.00;1.90;;;;;;;;;;471890;251;27510;-69
2021/06/21 10:58:34;;;;;;;2.40;2.20;;;;;;;;;;471838;251;27458;-70
2021/06/21 11:00:35;;;;;;;2.43;2.23;;;;;;;;;;471769;252;27430;-68
2021/06/21 11:02:37;;;;;;;2.50;2.30;;;;;;;;;;471867;251;27520;-68
2021/06/21 11:04:39;;;;;;;2.40;2.20;;;;;;;;;;471831;252;27450;-67
2021/06/21 11:06:41;;;;;;;2.70;2.00;;;;;;;;;;471900;251;27520;-69
2021/06/21 11:08:45;;;;;;;2.60;1.90;;;;;;;;;;471887;251;27538;-69
2021/06/21 11:10:45;;;;;;;2.77;2.20;;;;;;;;;;471762;251;27573;-68
2021/06/21 11:12:48;;;;;;;2.90;2.23;;;;;;;;;;471901;251;27542;-70
2021/06/21 11:14:49;;;;;;;3.30;2.30;;;;;;;;;;471820;252;27466;-68
2021/06/21 11:16:52;;;;;;;2.80;2.60;;;;;;;;;;471884;251;27541;-69
2021/06/21 11:18:54;;;;;;;2.30;2.10;;;;;;;;;;471868;251;27533;-67
2021/06/21 11:20:56;;;;;;;2.73;2.50;;;;;;;;;;471871;251;27459;-68
2021/06/21 11:23:01;;;;;;;3.90;2.40;;;;;;;;;;471873;251;27471;-69
2021/06/21 11:25:03;;;;;;;2.73;2.40;;;;;;;;;;471849;251;27426;-68
2021/06/21 11:27:05;;;;;;;3.10;2.00;;;;;;;;;;471879;251;27439;-69
2021/06/21 11:29:07;;;;;;;3.17;2.30;;;;;;;;;;471873;251;27434;-70
2021/06/21 11:31:09;;;;;;;4.83;2.37;;;;;;;;;;471840;251;27471;-67
2021/06/21 11:33:11;;;;;;;2.10;2.00;;;;;;;;;;471852;251;27415;-69
2021/06/21 11:35:14;;;;;;;3.20;2.50;;;;;;;;;;471841;252;27447;-69
2021/06/21 11:37:15;;;;;;;2.63;2.43;;;;;;;;;;471828;251;27422;-71
2021/06/21 11:39:17;;;;;;;2.10;1.90;;;;;;;;;;471872;251;27438;-70
2021/06/21 11:41:20;;;;;;;2.30;2.20;;;;;;;;;;471810;251;27467;-71
2021/06/21 11:43:22;;;;;;;5.10;2.37;;;;;;;;;;471846;252;27505;-70
2021/06/21 11:45:24;;;;;;;2.37;2.10;;;;;;;;;;471852;251;27418;-69
2021/06/21 11:47:28;;;;;;;6.70;2.20;;;;;;;;;;471830;251;27444;-69
2021/06/21 11:49:28;;;;;;;2.17;2.07;;;;;;;;;;471755;251;27437;-70
2021/06/21 11:51:30;;;;;;;2.30;2.10;;;;;;;;;;471868;251;27436;-68
2021/06/21 11:53:32;;;;;;;2.40;2.13;;;;;;;;;;471833;251;27541;-69
2021/06/21 11:55:34;;;;;;;2.70;2.50;;;;;;;;;;471870;251;27827;-70
2021/06/21 11:57:36;;;;;;;2.80;2.17;;;;;;;;;;471852;251;27459;-69
2021/06/21 11:59:39;;;;;;;5.53;2.17;;;;;;;;;;471822;251;27469;-67
2021/06/21 12:01:41;;;;;;;2.60;2.40;;;;;;;;;;471875;251;27554;-72
2021/06/21 12:03:46;;;;;;;3.63;2.20;;;;;;;;;;471838;251;27483;-68
2021/06/21 12:05:45;;;;;;;2.20;2.00;;;;;;;;;;471494;252;27569;-68
2021/06/21 12:07:47;;;;;;;2.50;2.30;;;;;;;;;;471862;251;27542;-69
2021/06/21 12:09:49;;;;;;;3.93;2.47;;;;;;;;;;471872;251;27474;-69
2021/06/21 12:11:52;;;;;;;2.50;2.30;;;;;;;;;;471872;251;27545;-69
2021/06/21 12:13:54;;;;;;;2.23;2.03;;;;;;;;;;471832;251;27461;-70